Time;durP1;ratioP1;P1;durP2;ratioP2;P2;SDS_P1;SDS_P2;PMS_P1;PMS_P2;Temp;Humidity;BMP_temperature;BMP_pressure;BME280_temperature;BME280_humidity;BME280_pressure;Samples;Min_cycle;Max_cycle;Signal;HPM_P1;HPM_P2
2023/07/22 00:02:23;;;;;;;4.80;4.40;;;22.50;49.20;23.00;100648.00;;;;6270995;22;20156;-52
2023/07/22 00:04:49;;;;;;;4.70;4.30;;;22.50;49.10;23.00;100648.00;;;;6271030;22;20156;-52
2023/07/22 00:07:15;;;;;;;4.80;4.50;;;22.50;49.10;23.00;100653.00;;;;6271076;22;20173;-52
2023/07/22 00:09:43;;;;;;;4.70;4.30;;;22.50;48.90;23.00;100655.00;;;;6271219;22;20156;-52
2023/07/22 00:12:08;;;;;;;4.40;4.10;;;22.50;48.90;23.00;100664.00;;;;6271584;22;20211;-52
2023/07/22 00:14:38;;;;;;;5.00;4.60;;;22.50;48.90;23.00;100649.00;;;;6270670;22;20481;-52
2023/07/22 00:17:05;;;;;;;4.70;4.30;;;22.50;49.10;22.90;100654.00;;;;6270817;22;20203;-52
2023/07/22 00:19:30;;;;;;;4.90;4.50;;;22.40;49.20;22.90;100647.00;;;;6271052;22;20141;-52
2023/07/22 00:21:56;;;;;;;5.20;4.70;;;22.40;49.30;22.90;100653.00;;;;6270873;22;20207;-52
2023/07/22 00:24:22;;;;;;;4.80;4.40;;;22.30;49.20;22.90;100652.00;;;;6271082;22;20160;-52
2023/07/22 00:26:49;;;;;;;4.60;4.30;;;22.30;49.30;22.80;100646.00;;;;6269200;22;20214;-53
2023/07/22 00:29:16;;;;;;;4.50;4.20;;;22.30;49.40;22.80;100645.00;;;;6271740;22;20220;-53
2023/07/22 00:31:41;;;;;;;5.07;4.67;;;22.30;49.50;22.80;100638.00;;;;6271123;22;20585;-53
2023/07/22 00:34:08;;;;;;;4.60;4.30;;;22.20;49.50;22.80;100634.00;;;;6271082;22;20165;-52
2023/07/22 00:36:34;;;;;;;4.30;3.90;;;22.20;49.60;22.80;100636.00;;;;6270790;22;20179;-53
2023/07/22 00:39:01;;;;;;;4.43;4.13;;;22.20;49.70;22.80;100640.00;;;;6271465;22;20145;-53
2023/07/22 00:41:27;;;;;;;5.00;4.60;;;22.20;49.70;22.70;100641.00;;;;6271534;22;20149;-53
2023/07/22 00:43:52;;;;;;;4.70;4.40;;;22.20;49.70;22.70;100638.00;;;;6271239;22;20499;-52
2023/07/22 00:46:18;;;;;;;5.00;4.60;;;22.20;49.80;22.70;100639.00;;;;6270293;22;20145;-52
2023/07/22 00:48:44;;;;;;;4.60;4.20;;;22.20;49.80;22.70;100641.00;;;;6270652;22;20165;-53
2023/07/22 00:51:10;;;;;;;5.23;4.37;;;22.10;49.70;22.70;100640.00;;;;6243784;22;20149;-53
2023/07/22 00:53:35;;;;;;;4.93;4.53;;;22.10;49.90;22.60;100636.00;;;;6270840;22;20781;-53
2023/07/22 00:56:01;;;;;;;4.43;4.13;;;22.10;49.80;22.70;100640.00;;;;6270387;22;20153;-53
2023/07/22 00:58:27;;;;;;;4.53;4.13;;;22.10;50.00;22.60;100635.00;;;;6270839;22;20536;-53
2023/07/22 01:00:52;;;;;;;4.10;3.80;;;22.10;49.90;22.60;100640.00;;;;6270629;22;20145;-53
2023/07/22 01:03:18;;;;;;;4.70;4.40;;;22.10;50.00;22.60;100639.00;;;;6270575;22;20156;-53
2023/07/22 01:05:45;;;;;;;4.50;4.20;;;22.10;50.10;22.60;100646.00;;;;6243606;22;20153;-53
2023/07/22 01:08:11;;;;;;;4.63;4.23;;;22.00;50.20;22.60;100632.00;;;;6268899;22;20633;-53
2023/07/22 01:10:36;;;;;;;4.93;4.43;;;22.00;50.10;22.60;100635.00;;;;6270551;22;20197;-53
2023/07/22 01:13:02;;;;;;;4.30;3.97;;;22.00;50.20;22.60;100643.00;;;;6270572;22;20165;-53
2023/07/22 01:15:28;;;;;;;4.30;4.00;;;22.00;50.40;22.50;100644.00;;;;6269846;22;20169;-52
2023/07/22 01:17:56;;;;;;;4.83;4.43;;;21.90;50.30;22.50;100633.00;;;;6269121;22;20176;-53
2023/07/22 01:20:22;;;;;;;4.70;4.40;;;22.00;50.50;22.50;100636.00;;;;6271320;22;20149;-53
2023/07/22 01:22:52;;;;;;;5.03;4.53;;;21.90;50.40;22.50;100633.00;;;;6243528;22;20149;-52
2023/07/22 01:25:22;;;;;;;4.80;4.40;;;21.90;50.40;22.50;100625.00;;;;6270855;22;20485;-52
2023/07/22 01:27:49;;;;;;;4.70;4.30;;;21.90;50.40;22.50;100636.00;;;;6270727;22;20168;-52
2023/07/22 01:30:15;;;;;;;4.60;4.20;;;21.90;50.40;22.50;100628.00;;;;6269051;22;20161;-53
2023/07/22 01:32:44;;;;;;;4.90;4.50;;;21.90;50.50;22.50;100629.00;;;;6273750;22;20179;-53
2023/07/22 01:35:10;;;;;;;4.90;4.50;;;21.90;50.50;22.40;100637.00;;;;6275811;22;20144;-52
2023/07/22 01:37:36;;;;;;;4.70;4.30;;;21.90;50.70;22.40;100631.00;;;;6270123;22;20233;-53
2023/07/22 01:40:11;;;;;;;4.80;4.47;;;21.80;50.70;22.40;100631.00;;;;6268806;22;20176;-53
2023/07/22 01:42:46;;;;;;;4.63;4.33;;;21.80;50.70;22.40;100625.00;;;;6270498;22;20574;-52
2023/07/22 01:45:12;;;;;;;4.87;4.47;;;21.80;50.70;22.30;100620.00;;;;6269988;22;20140;-53
2023/07/22 01:47:38;;;;;;;4.60;4.27;;;21.80;50.70;22.30;100626.00;;;;6276246;22;20172;-53
2023/07/22 01:50:06;;;;;;;5.13;4.70;;;21.80;50.80;22.30;100617.00;;;;6275158;22;20180;-53
2023/07/22 01:52:32;;;;;;;4.90;4.50;;;21.80;50.90;22.30;100627.00;;;;6269062;22;20176;-52
2023/07/22 01:54:57;;;;;;;5.00;4.60;;;21.80;50.80;22.30;100623.00;;;;6270295;22;20179;-53
2023/07/22 01:57:23;;;;;;;4.90;4.50;;;21.70;51.40;22.20;100622.00;;;;6269961;22;20603;-53
2023/07/22 01:59:49;;;;;;;4.87;4.47;;;21.70;50.90;22.20;100617.00;;;;6270283;22;20141;-52
2023/07/22 02:02:14;;;;;;;4.97;4.50;;;21.70;51.00;22.20;100606.00;;;;6270410;22;20157;-53
2023/07/22 02:04:40;;;;;;;4.90;4.50;;;21.70;51.00;22.20;100614.00;;;;6271994;22;20149;-53
2023/07/22 02:07:06;;;;;;;4.93;4.53;;;21.60;51.00;22.20;100610.00;;;;6272064;22;20431;-53
2023/07/22 02:09:35;;;;;;;4.57;4.17;;;21.70;51.00;22.20;100617.00;;;;6271710;22;20152;-53
2023/07/22 02:12:00;;;;;;;4.90;4.50;;;21.60;50.90;22.20;100612.00;;;;6272488;22;20455;-53
2023/07/22 02:14:26;;;;;;;4.90;4.50;;;21.60;51.70;22.10;100601.00;;;;6271779;22;20242;-53
2023/07/22 02:16:52;;;;;;;4.77;4.37;;;21.60;50.90;22.10;100608.00;;;;6271555;22;20181;-53
2023/07/22 02:19:18;;;;;;;4.77;4.37;;;21.60;51.00;22.10;100616.00;;;;6272172;22;20145;-53
2023/07/22 02:21:43;;;;;;;5.20;4.80;;;21.60;51.00;22.10;100605.00;;;;6272874;22;20630;-53
2023/07/22 02:24:09;;;;;;;4.70;4.40;;;21.60;51.00;22.10;100612.00;;;;6272992;22;20145;-53
2023/07/22 02:26:35;;;;;;;5.03;4.63;;;21.60;51.10;22.10;100608.00;;;;6272307;22;20149;-53
2023/07/22 02:29:02;;;;;;;5.03;4.63;;;21.50;51.10;22.10;100617.00;;;;6272638;22;20153;-52
2023/07/22 02:31:28;;;;;;;5.30;4.90;;;21.50;51.10;22.00;100607.00;;;;6270729;22;20149;-53
2023/07/22 02:33:53;;;;;;;5.97;4.80;;;21.50;51.00;22.00;100608.00;;;;6271917;22;20185;-53
2023/07/22 02:36:19;;;;;;;5.00;4.60;;;21.50;51.20;22.00;100612.00;;;;6270193;22;20152;-53
2023/07/22 02:38:45;;;;;;;5.27;4.80;;;21.50;51.00;22.00;100610.00;;;;6271919;22;20169;-53
2023/07/22 02:41:10;;;;;;;5.33;4.83;;;21.50;51.00;22.00;100618.00;;;;6272363;22;20680;-53
2023/07/22 02:43:36;;;;;;;5.07;4.67;;;21.40;51.00;22.00;100614.00;;;;6270524;22;20156;-52
2023/07/22 02:46:03;;;;;;;5.07;4.67;;;21.40;51.10;22.00;100620.00;;;;6271639;22;20155;-52
2023/07/22 02:48:31;;;;;;;5.20;4.80;;;21.40;52.00;21.70;100622.00;;;;6270631;22;20554;-53
2023/07/22 02:51:06;;;;;;;5.47;4.90;;;21.40;51.40;21.90;100619.00;;;;6272370;22;20153;-52
2023/07/22 02:53:33;;;;;;;5.20;4.80;;;21.40;51.40;21.90;100627.00;;;;6271980;22;20532;-53
2023/07/22 02:55:59;;;;;;;4.73;4.40;;;21.40;51.40;21.90;100622.00;;;;6270044;22;20226;-53
2023/07/22 02:58:25;;;;;;;5.93;5.03;;;21.40;51.70;21.90;100623.00;;;;6270377;22;20566;-53
2023/07/22 03:00:51;;;;;;;5.73;5.17;;;21.40;51.70;21.90;100620.00;;;;6272811;22;20141;-52
2023/07/22 03:03:18;;;;;;;5.53;5.03;;;21.40;52.00;21.90;100628.00;;;;6273248;22;20205;-52
2023/07/22 03:05:44;;;;;;;4.90;4.40;;;21.30;51.90;21.90;100629.00;;;;6272887;22;20640;-52
2023/07/22 03:08:10;;;;;;;5.30;4.80;;;21.40;51.80;21.90;100637.00;;;;6273300;22;20169;-54
2023/07/22 03:10:36;;;;;;;5.30;4.90;;;21.40;52.10;21.90;100615.00;;;;6273287;22;20150;-52
2023/07/22 03:13:03;;;;;;;5.70;5.13;;;21.40;52.60;21.90;100631.00;;;;6273263;22;20165;-52
2023/07/22 03:15:29;;;;;;;5.70;4.90;;;21.30;52.30;21.80;100630.00;;;;6272407;22;20176;-52
2023/07/22 03:17:59;;;;;;;5.40;5.00;;;21.30;52.30;21.80;100627.00;;;;6273336;22;20176;-52
2023/07/22 03:20:25;;;;;;;5.60;5.00;;;21.30;52.20;21.80;100631.00;;;;6273770;22;20149;-52
2023/07/22 03:22:51;;;;;;;5.80;5.20;;;21.30;52.10;21.80;100630.00;;;;6273454;22;20197;-52
2023/07/22 03:25:17;;;;;;;5.57;5.10;;;21.20;51.90;21.80;100622.00;;;;6273025;22;20153;-52
2023/07/22 03:27:44;;;;;;;5.60;5.10;;;21.20;52.10;21.70;100620.00;;;;6278818;22;20177;-52
2023/07/22 03:30:16;;;;;;;6.00;5.40;;;21.20;52.10;21.70;100624.00;;;;6276545;22;20210;-52
2023/07/22 03:32:43;;;;;;;5.77;5.30;;;21.20;52.00;21.70;100619.00;;;;6272050;22;20168;-52
2023/07/22 03:35:10;;;;;;;6.83;5.40;;;21.20;52.00;21.70;100629.00;;;;6279817;22;20728;-52
2023/07/22 03:37:36;;;;;;;5.13;4.73;;;21.10;51.90;21.70;100623.00;;;;6275940;22;20636;-52
2023/07/22 03:40:07;;;;;;;5.30;4.80;;;21.20;52.10;21.70;100620.00;;;;6272806;22;20609;-53
2023/07/22 03:42:34;;;;;;;5.33;4.87;;;21.20;52.20;21.60;100615.00;;;;6273174;22;20218;-52
2023/07/22 03:44:59;;;;;;;5.60;5.10;;;21.10;52.20;21.60;100622.00;;;;6272718;22;20228;-52
2023/07/22 03:47:25;;;;;;;5.10;4.67;;;21.10;52.30;21.60;100625.00;;;;6272938;22;20200;-52
2023/07/22 03:49:51;;;;;;;4.90;4.50;;;21.10;52.20;21.60;100622.00;;;;6281331;22;20153;-52
2023/07/22 03:52:18;;;;;;;4.87;4.47;;;21.10;52.00;21.60;100627.00;;;;6274665;22;20607;-52
2023/07/22 03:54:44;;;;;;;5.20;4.80;;;21.10;52.10;21.60;100624.00;;;;6272993;22;20219;-53
2023/07/22 03:57:10;;;;;;;5.70;5.20;;;21.10;52.20;21.60;100634.00;;;;6272453;22;20615;-53
2023/07/22 03:59:36;;;;;;;5.27;4.80;;;21.10;52.10;21.60;100635.00;;;;6273170;22;20149;-52
2023/07/22 04:02:02;;;;;;;5.33;4.93;;;21.10;52.10;21.70;100637.00;;;;6270868;22;20179;-52
2023/07/22 04:04:28;;;;;;;5.07;4.67;;;21.10;52.20;21.70;100634.00;;;;6272855;22;20159;-52
2023/07/22 04:06:54;;;;;;;5.30;4.80;;;21.20;52.00;21.50;100631.00;;;;6270444;22;20177;-52
2023/07/22 04:09:19;;;;;;;5.33;4.83;;;21.20;52.60;21.70;100635.00;;;;6272947;22;20149;-52
2023/07/22 04:11:45;;;;;;;5.87;5.20;;;21.20;52.50;21.70;100624.00;;;;6273030;22;20646;-52
2023/07/22 04:14:12;;;;;;;6.97;5.10;;;21.20;52.50;21.60;100630.00;;;;6271621;22;20165;-52
2023/07/22 04:16:39;;;;;;;6.53;5.10;;;21.10;52.50;21.60;100631.00;;;;6271795;22;20218;-52
2023/07/22 04:19:04;;;;;;;5.53;5.03;;;21.10;52.60;21.60;100624.00;;;;6272593;22;20146;-52
2023/07/22 04:21:30;;;;;;;5.60;5.10;;;21.10;52.90;21.60;100634.00;;;;6272302;22;20204;-52
2023/07/22 04:23:56;;;;;;;5.40;5.00;;;21.00;52.80;21.60;100620.00;;;;6272453;22;20153;-52
2023/07/22 04:26:21;;;;;;;5.50;5.00;;;21.00;52.80;21.60;100623.00;;;;6271438;22;20602;-52
2023/07/22 04:28:47;;;;;;;5.60;4.70;;;21.00;52.80;21.50;100631.00;;;;6272279;22;20176;-52
2023/07/22 04:31:13;;;;;;;5.13;4.73;;;21.00;52.70;21.50;100625.00;;;;6271803;22;20153;-52
2023/07/22 04:33:38;;;;;;;5.50;5.07;;;21.00;52.70;21.60;100629.00;;;;6272054;22;20180;-52
2023/07/22 04:36:04;;;;;;;5.30;4.80;;;21.00;52.80;21.60;100631.00;;;;6269746;22;20495;-52
2023/07/22 04:38:30;;;;;;;5.50;4.87;;;21.10;52.90;21.60;100622.00;;;;6270800;22;20169;-55
2023/07/22 04:40:56;;;;;;;5.27;4.87;;;21.00;52.60;21.60;100638.00;;;;6272389;22;20156;-52
2023/07/22 04:43:22;;;;;;;4.93;4.53;;;21.00;52.60;21.60;100642.00;;;;6272421;22;20155;-52
2023/07/22 04:45:47;;;;;;;5.10;4.70;;;21.10;52.70;21.60;100637.00;;;;6270456;22;20491;-52
2023/07/22 04:48:19;;;;;;;5.10;4.70;;;21.10;52.80;21.60;100637.00;;;;6272411;22;20168;-52
2023/07/22 04:50:45;;;;;;;4.53;4.13;;;21.10;52.90;21.60;100639.00;;;;6272351;22;20144;-52
2023/07/22 04:53:13;;;;;;;5.00;4.60;;;21.10;52.80;21.60;100638.00;;;;6272632;22;20169;-52
2023/07/22 04:55:40;;;;;;;5.47;4.73;;;21.00;52.80;21.50;100626.00;;;;6271747;22;20203;-52
2023/07/22 04:58:06;;;;;;;5.50;4.97;;;21.00;52.80;21.50;100642.00;;;;6245487;22;20247;-52
2023/07/22 05:00:33;;;;;;;4.87;4.33;;;21.00;52.80;21.50;100636.00;;;;6263392;22;20485;-52
2023/07/22 05:02:59;;;;;;;5.07;4.60;;;21.00;52.80;21.50;100632.00;;;;6271574;22;20180;-52
2023/07/22 05:05:24;;;;;;;5.47;4.60;;;21.00;52.90;21.50;100629.00;;;;6270580;22;20152;-52
2023/07/22 05:07:50;;;;;;;5.53;5.03;;;20.90;52.90;21.50;100630.00;;;;6269965;22;20164;-52
2023/07/22 05:10:16;;;;;;;5.00;4.60;;;20.90;52.90;21.50;100630.00;;;;6271981;22;20149;-52
2023/07/22 05:12:42;;;;;;;5.30;4.80;;;21.00;53.10;21.50;100629.00;;;;6268501;22;20640;-51
2023/07/22 05:15:10;;;;;;;5.40;4.90;;;20.90;53.50;21.40;100636.00;;;;6267327;22;20273;-52
2023/07/22 05:17:35;;;;;;;5.10;4.70;;;20.90;53.50;21.40;100629.00;;;;6271527;22;20183;-52
2023/07/22 05:20:01;;;;;;;5.20;4.80;;;21.00;53.20;21.40;100634.00;;;;6269722;22;20536;-52
2023/07/22 05:22:27;;;;;;;5.20;4.70;;;21.00;53.10;21.40;100630.00;;;;6274993;22;20149;-52
2023/07/22 05:24:53;;;;;;;5.13;4.40;;;20.90;53.10;21.50;100629.00;;;;6274064;22;20160;-51
2023/07/22 05:27:18;;;;;;;5.00;4.50;;;20.90;53.10;21.50;100631.00;;;;6272780;22;20165;-51
2023/07/22 05:29:45;;;;;;;4.70;4.30;;;21.00;53.20;21.50;100629.00;;;;6271323;22;20494;-53
2023/07/22 05:32:11;;;;;;;5.30;4.80;;;21.00;53.20;21.50;100635.00;;;;6271596;22;20171;-51
2023/07/22 05:34:36;;;;;;;6.37;4.60;;;21.00;53.00;21.50;100641.00;;;;6272001;22;20546;-51
2023/07/22 05:37:03;;;;;;;6.07;4.40;;;21.10;53.00;21.60;100635.00;;;;6273823;22;20200;-51
2023/07/22 05:39:28;;;;;;;5.17;4.57;;;21.10;53.30;21.60;100632.00;;;;6271096;22;20149;-51
2023/07/22 05:41:54;;;;;;;5.00;4.50;;;21.00;53.00;21.60;100639.00;;;;6270380;22;20213;-51
2023/07/22 05:44:21;;;;;;;5.17;4.10;;;21.00;53.00;21.60;100636.00;;;;6270805;22;20250;-51
2023/07/22 05:46:46;;;;;;;6.53;4.63;;;21.10;53.10;21.60;100634.00;;;;6268317;22;20178;-52
2023/07/22 05:49:12;;;;;;;5.17;4.53;;;21.00;53.20;21.60;100635.00;;;;6271759;22;20144;-53
2023/07/22 05:51:38;;;;;;;4.63;4.23;;;21.10;53.10;21.60;100637.00;;;;6274359;22;20656;-53
2023/07/22 05:54:04;;;;;;;5.77;4.57;;;21.00;53.00;21.60;100633.00;;;;6270178;22;20175;-53
2023/07/22 05:56:30;;;;;;;5.00;4.60;;;21.00;53.20;21.50;100634.00;;;;6269186;22;20179;-52
2023/07/22 05:58:56;;;;;;;4.97;4.57;;;20.90;53.20;21.50;100632.00;;;;6271051;22;20176;-52
2023/07/22 06:01:23;;;;;;;5.00;4.50;;;20.90;53.50;21.50;100640.00;;;;6269139;22;20206;-52
2023/07/22 06:03:48;;;;;;;5.33;4.83;;;20.90;53.60;21.40;100642.00;;;;6271538;22;20179;-52
2023/07/22 06:06:14;;;;;;;5.30;4.80;;;20.80;53.50;21.40;100645.00;;;;6268889;22;20154;-51
2023/07/22 06:08:40;;;;;;;5.00;4.60;;;20.80;53.50;21.40;100639.00;;;;6270872;22;20194;-52
2023/07/22 06:11:05;;;;;;;4.60;4.20;;;20.80;53.90;21.30;100646.00;;;;6271488;22;20178;-52
2023/07/22 06:13:31;;;;;;;5.20;4.70;;;20.70;53.80;21.30;100643.00;;;;6271018;22;20169;-53
2023/07/22 06:15:57;;;;;;;5.00;4.60;;;20.70;53.80;21.30;100641.00;;;;6269969;22;20210;-52
2023/07/22 06:18:23;;;;;;;5.47;5.07;;;20.80;53.70;21.30;100641.00;;;;6270262;22;20233;-53
2023/07/22 06:20:49;;;;;;;5.27;4.87;;;20.80;53.80;21.30;100647.00;;;;6270432;22;20158;-53
2023/07/22 06:23:14;;;;;;;5.53;5.03;;;20.70;53.90;21.30;100638.00;;;;6218891;22;20235;-53
2023/07/22 06:25:40;;;;;;;5.50;5.00;;;20.70;54.10;21.20;100640.00;;;;6270914;22;20160;-53
2023/07/22 06:28:06;;;;;;;5.10;4.70;;;20.70;54.00;21.20;100631.00;;;;6271561;22;20179;-52
2023/07/22 06:30:32;;;;;;;5.23;4.80;;;20.70;53.90;21.20;100637.00;;;;6268733;22;20752;-53
2023/07/22 06:32:58;;;;;;;5.60;5.10;;;20.70;54.00;21.20;100635.00;;;;6270818;22;20172;-52
2023/07/22 06:35:23;;;;;;;5.50;5.00;;;20.60;54.00;21.20;100646.00;;;;6241767;22;20330;-52
2023/07/22 06:37:49;;;;;;;5.00;4.60;;;20.70;54.00;21.20;100646.00;;;;6270221;22;20632;-53
2023/07/22 06:40:15;;;;;;;5.50;5.00;;;20.70;54.00;21.20;100645.00;;;;6271449;22;20149;-53
2023/07/22 06:42:40;;;;;;;5.77;5.20;;;20.60;54.20;21.10;100649.00;;;;6271822;22;20154;-53
2023/07/22 06:45:07;;;;;;;5.43;4.93;;;20.60;54.20;21.10;100644.00;;;;6277929;22;20740;-53
2023/07/22 06:47:33;;;;;;;5.93;5.43;;;20.60;54.20;21.10;100638.00;;;;6270293;22;20195;-53
2023/07/22 06:49:58;;;;;;;6.37;5.13;;;20.60;54.20;21.10;100645.00;;;;6271336;22;20652;-52
2023/07/22 06:52:24;;;;;;;5.70;5.20;;;20.60;54.70;21.10;100638.00;;;;6273440;22;20153;-52
2023/07/22 06:54:50;;;;;;;5.80;5.30;;;20.60;54.20;21.10;100644.00;;;;6273280;22;20197;-53
2023/07/22 06:57:16;;;;;;;5.30;4.80;;;20.50;54.10;21.10;100649.00;;;;6273038;22;20172;-53
2023/07/22 06:59:41;;;;;;;5.50;5.00;;;20.50;54.10;21.10;100648.00;;;;6273642;22;20145;-52
2023/07/22 07:02:07;;;;;;;5.70;5.20;;;20.50;54.90;21.10;100652.00;;;;6273810;22;20146;-52
2023/07/22 07:04:33;;;;;;;6.97;5.50;;;20.50;54.30;21.10;100630.00;;;;6273624;22;20149;-52
2023/07/22 07:06:59;;;;;;;5.80;5.30;;;20.50;54.30;21.00;100641.00;;;;6272461;22;20656;-52
2023/07/22 07:09:25;;;;;;;4.97;4.57;;;20.50;54.20;21.00;100645.00;;;;6273603;22;20155;-53
2023/07/22 07:11:51;;;;;;;5.67;5.17;;;20.50;54.20;21.00;100632.00;;;;6273323;22;20148;-51
2023/07/22 07:14:17;;;;;;;5.30;4.90;;;20.50;54.30;21.10;100647.00;;;;6273194;22;20629;-52
2023/07/22 07:16:43;;;;;;;5.33;4.83;;;20.50;54.30;21.10;100646.00;;;;6272464;22;20160;-52
2023/07/22 07:19:09;;;;;;;5.50;5.10;;;20.60;54.40;21.10;100641.00;;;;6273014;22;20145;-52
2023/07/22 07:21:35;;;;;;;5.97;5.40;;;20.50;54.40;21.10;100651.00;;;;6272095;22;20147;-52
2023/07/22 07:24:01;;;;;;;5.90;5.40;;;20.50;54.40;21.00;100648.00;;;;6273205;22;20239;-52
2023/07/22 07:26:27;;;;;;;5.80;5.30;;;20.40;54.50;21.00;100644.00;;;;6270587;22;20207;-52
2023/07/22 07:28:53;;;;;;;5.97;5.47;;;20.40;54.50;21.00;100641.00;;;;6272986;22;20175;-52
2023/07/22 07:31:19;;;;;;;5.83;5.13;;;20.40;54.60;21.00;100647.00;;;;6271633;22;20608;-52
2023/07/22 07:33:45;;;;;;;5.60;5.10;;;20.50;54.70;21.00;100638.00;;;;6273258;22;20176;-52
2023/07/22 07:36:11;;;;;;;5.17;4.77;;;20.50;54.80;21.00;100642.00;;;;6278549;22;20142;-52
2023/07/22 07:38:36;;;;;;;5.73;5.23;;;20.50;54.70;21.10;100638.00;;;;6280348;22;20498;-52
2023/07/22 07:41:04;;;;;;;6.00;5.03;;;20.50;54.70;21.10;100648.00;;;;6273377;22;20156;-52
2023/07/22 07:43:29;;;;;;;5.80;5.30;;;20.50;54.80;21.00;100655.00;;;;6273580;22;20481;-52
2023/07/22 07:46:26;;;;;;;6.10;5.60;;;20.40;54.50;21.00;100653.00;;;;6271366;22;20153;-52
2023/07/22 07:48:57;;;;;;;6.23;5.70;;;20.40;54.80;21.00;100650.00;;;;6248554;22;20173;-52
2023/07/22 07:51:24;;;;;;;5.87;5.27;;;20.50;54.70;21.00;100638.00;;;;6281875;22;20163;-52
2023/07/22 07:53:50;;;;;;;6.03;5.47;;;20.50;54.70;21.00;100640.00;;;;6274558;22;20173;-52
2023/07/22 07:56:17;;;;;;;5.47;5.07;;;20.50;54.70;21.10;100655.00;;;;6272365;22;20155;-52
2023/07/22 07:58:43;;;;;;;5.67;5.17;;;20.50;54.60;21.10;100655.00;;;;6272845;22;20188;-52
2023/07/22 08:01:09;;;;;;;6.07;5.57;;;20.50;54.50;21.10;100643.00;;;;6271889;22;20148;-52
2023/07/22 08:03:35;;;;;;;6.77;6.03;;;20.50;55.20;21.10;100650.00;;;;6272961;22;20223;-52
2023/07/22 08:06:02;;;;;;;5.90;5.40;;;20.50;54.80;21.10;100651.00;;;;6270653;22;20151;-52
2023/07/22 08:08:28;;;;;;;6.20;5.60;;;20.50;54.40;21.10;100651.00;;;;6273045;22;20253;-52
2023/07/22 08:11:13;;;;;;;6.37;5.77;;;20.60;54.50;21.10;100649.00;;;;6266809;22;20152;-52
2023/07/22 08:13:39;;;;;;;6.70;6.00;;;20.50;54.30;21.10;100648.00;;;;6272968;22;20259;-52
2023/07/22 08:16:07;;;;;;;6.50;5.90;;;20.50;54.10;21.10;100638.00;;;;6271884;22;20253;-52
2023/07/22 08:18:33;;;;;;;5.77;5.27;;;20.50;54.00;21.10;100644.00;;;;6272497;22;20165;-52
2023/07/22 08:20:58;;;;;;;6.03;5.53;;;20.50;54.00;21.10;100653.00;;;;6271452;22;20170;-52
2023/07/22 08:23:24;;;;;;;6.17;5.67;;;20.50;53.80;21.10;100644.00;;;;6271473;22;20149;-53
2023/07/22 08:25:50;;;;;;;6.03;5.53;;;20.50;53.50;21.10;100640.00;;;;6270003;22;20144;-52
2023/07/22 08:28:17;;;;;;;5.93;5.33;;;20.50;53.40;21.10;100640.00;;;;6271941;22;20227;-53
2023/07/22 08:30:43;;;;;;;6.17;5.67;;;20.50;53.50;21.10;100637.00;;;;6272305;22;20553;-52
2023/07/22 08:33:09;;;;;;;5.70;5.20;;;20.60;53.40;21.10;100627.00;;;;6272413;22;20180;-53
2023/07/22 08:35:39;;;;;;;5.67;5.17;;;20.60;53.30;21.20;100649.00;;;;6270776;22;20640;-52
2023/07/22 08:38:05;;;;;;;6.17;5.57;;;20.60;53.30;21.10;100639.00;;;;6272046;22;20673;-52
2023/07/22 08:40:34;;;;;;;6.53;5.80;;;20.50;53.10;21.20;100642.00;;;;6271757;22;20187;-52
2023/07/22 08:43:01;;;;;;;6.30;5.70;;;20.60;52.90;21.20;100639.00;;;;6272728;22;20200;-52
2023/07/22 08:45:29;;;;;;;5.77;5.27;;;20.60;52.90;21.20;100607.00;;;;6268176;22;20165;-53
2023/07/22 08:47:55;;;;;;;6.60;5.83;;;20.60;52.80;21.20;100625.00;;;;6245679;22;20182;-52
2023/07/22 08:50:21;;;;;;;5.73;5.23;;;20.60;52.80;21.20;100638.00;;;;6244700;22;20156;-52
2023/07/22 08:52:47;;;;;;;6.40;5.80;;;20.60;52.70;21.20;100641.00;;;;6270980;22;20177;-51
2023/07/22 08:55:13;;;;;;;6.00;5.50;;;20.60;53.00;21.20;100638.00;;;;6269390;22;20171;-52
2023/07/22 08:57:39;;;;;;;6.03;5.40;;;20.70;53.00;21.30;100638.00;;;;6245270;22;20240;-52
2023/07/22 09:00:06;;;;;;;5.70;5.20;;;20.60;52.80;21.30;100630.00;;;;6271356;22;20656;-52
2023/07/22 09:02:35;;;;;;;6.40;5.80;;;20.70;52.80;21.30;100634.00;;;;6268509;22;20171;-52
2023/07/22 09:05:02;;;;;;;6.27;5.67;;;20.70;52.90;21.30;100641.00;;;;6244885;22;20151;-52
2023/07/22 09:07:28;;;;;;;5.80;5.30;;;20.70;52.80;21.30;100628.00;;;;6271523;22;20491;-52
2023/07/22 09:09:54;;;;;;;5.90;5.30;;;20.70;52.50;21.40;100629.00;;;;6244570;22;20261;-51
2023/07/22 09:12:21;;;;;;;5.70;5.20;;;20.70;52.50;21.40;100641.00;;;;6244703;22;20633;-51
2023/07/22 09:14:47;;;;;;;5.33;4.93;;;20.80;52.70;21.40;100628.00;;;;6274103;22;20179;-52
2023/07/22 09:17:12;;;;;;;5.87;5.37;;;20.70;52.60;21.50;100637.00;;;;6244610;22;20630;-54
2023/07/22 09:19:38;;;;;;;5.70;5.20;;;20.80;52.30;21.50;100632.00;;;;6270850;22;20145;-51
2023/07/22 09:22:04;;;;;;;5.83;5.23;;;20.70;52.10;21.50;100627.00;;;;6271475;22;20235;-52
2023/07/22 09:24:30;;;;;;;6.40;5.73;;;20.70;52.10;21.50;100633.00;;;;6271013;22;20520;-51
2023/07/22 09:26:58;;;;;;;5.77;5.20;;;20.80;51.80;21.50;100632.00;;;;6270320;22;20172;-54
2023/07/22 09:29:44;;;;;;;5.70;5.20;;;20.70;52.00;21.50;100629.00;;;;6271905;22;20148;-50
2023/07/22 09:32:10;;;;;;;6.00;4.80;;;20.70;52.10;21.50;100632.00;;;;6270652;22;20578;-53
2023/07/22 09:34:36;;;;;;;5.30;4.80;;;20.80;52.50;21.50;100631.00;;;;6271208;22;20180;-53
2023/07/22 09:37:03;;;;;;;5.47;4.97;;;20.80;52.10;21.50;100627.00;;;;6274046;22;20192;-53
2023/07/22 09:39:29;;;;;;;6.57;4.97;;;20.80;52.10;21.50;100622.00;;;;6277105;22;20151;-53
2023/07/22 09:41:55;;;;;;;5.60;5.10;;;20.80;51.80;21.50;100629.00;;;;6268827;22;20149;-53
2023/07/22 09:44:29;;;;;;;5.43;5.00;;;20.80;51.70;21.50;100630.00;;;;6268873;22;20163;-53
2023/07/22 09:46:55;;;;;;;6.80;4.70;;;20.80;51.60;21.50;100623.00;;;;6265795;22;20644;-53
2023/07/22 09:49:21;;;;;;;5.40;4.90;;;20.80;51.70;21.50;100623.00;;;;6269546;22;20152;-53
2023/07/22 09:51:46;;;;;;;4.70;4.30;;;20.80;51.80;21.50;100627.00;;;;6270296;22;20149;-54
2023/07/22 09:54:12;;;;;;;5.00;4.50;;;20.90;51.00;21.50;100633.00;;;;6273973;22;20516;-53
2023/07/22 09:56:45;;;;;;;5.30;4.90;;;20.80;51.30;21.50;100629.00;;;;6258584;22;20546;-53
2023/07/22 09:59:10;;;;;;;5.90;4.60;;;20.80;51.20;21.50;100628.00;;;;6270840;22;20155;-53
2023/07/22 10:01:39;;;;;;;4.83;4.43;;;20.80;51.00;21.60;100626.00;;;;6268612;22;20152;-53
2023/07/22 10:04:05;;;;;;;6.00;4.77;;;20.90;51.10;21.60;100629.00;;;;6269664;22;20160;-53
2023/07/22 10:06:30;;;;;;;5.77;5.00;;;20.90;51.00;21.60;100614.00;;;;6242437;22;20152;-53
2023/07/22 10:08:56;;;;;;;6.80;5.00;;;20.90;51.00;21.60;100622.00;;;;6268320;22;20173;-53
2023/07/22 10:11:23;;;;;;;8.03;4.90;;;20.90;51.00;21.60;100627.00;;;;6270236;22;20153;-53
2023/07/22 10:13:49;;;;;;;5.10;4.70;;;20.90;51.00;21.60;100615.00;;;;6242792;22;20180;-53
2023/07/22 10:16:16;;;;;;;5.57;4.93;;;21.00;51.00;21.60;100618.00;;;;6241869;22;20219;-53
2023/07/22 10:18:43;;;;;;;5.00;4.60;;;21.00;51.00;21.70;100620.00;;;;6243121;22;20206;-53
2023/07/22 10:21:08;;;;;;;5.00;4.50;;;21.00;51.00;21.70;100627.00;;;;6267057;22;20699;-53
2023/07/22 10:23:34;;;;;;;4.90;4.40;;;21.00;51.00;21.70;100603.00;;;;6269856;22;20194;-53
2023/07/22 10:26:00;;;;;;;4.80;4.40;;;21.00;51.00;21.80;100625.00;;;;6244319;22;20598;-53
2023/07/22 10:28:25;;;;;;;5.57;4.13;;;21.00;51.00;21.80;100620.00;;;;6275534;22;20169;-53
2023/07/22 10:30:56;;;;;;;5.00;4.50;;;21.10;50.80;21.80;100616.00;;;;6273299;22;20613;-53
2023/07/22 10:33:21;;;;;;;4.70;4.10;;;21.10;50.30;21.80;100606.00;;;;6270611;22;20702;-53
2023/07/22 10:36:08;;;;;;;4.17;3.87;;;21.10;50.30;21.80;100602.00;;;;6244283;22;20141;-53
2023/07/22 10:38:35;;;;;;;4.60;4.20;;;21.10;50.20;21.80;100600.00;;;;6271247;22;20164;-53
2023/07/22 10:41:00;;;;;;;4.77;4.37;;;21.10;50.00;21.80;100603.00;;;;6272210;22;20149;-53
2023/07/22 10:43:34;;;;;;;4.30;4.00;;;21.20;49.90;21.80;100601.00;;;;6272136;22;20149;-52
2023/07/22 10:46:12;;;;;;;4.90;4.40;;;21.20;49.80;21.80;100600.00;;;;6269455;22;20152;-52